createdAt,value
2019-02-14T00:00:41.803Z,1.85
2019-02-14T00:01:41.795Z,1.81
2019-02-14T00:02:41.780Z,1.81
2019-02-14T00:03:41.815Z,1.85
2019-02-14T00:04:41.760Z,1.85
2019-02-14T00:05:41.755Z,1.83
2019-02-14T00:06:41.740Z,1.88
2019-02-14T00:07:41.727Z,1.85
2019-02-14T00:08:41.757Z,1.82
2019-02-14T00:09:41.703Z,1.92
2019-02-14T00:10:41.696Z,1.77
2019-02-14T00:11:41.695Z,1.74
2019-02-14T00:12:41.673Z,1.82
2019-02-14T00:13:41.710Z,1.77
2019-02-14T00:14:41.649Z,1.85
2019-02-14T00:15:41.641Z,1.81
2019-02-14T00:16:41.628Z,1.74
2019-02-14T00:17:41.618Z,1.75
2019-02-14T00:18:41.652Z,1.75
2019-02-14T00:19:41.595Z,1.68
2019-02-14T00:20:41.612Z,1.74
2019-02-14T00:21:41.576Z,1.64
2019-02-14T00:22:41.567Z,1.68
2019-02-14T00:23:41.597Z,1.63
2019-02-14T00:24:41.543Z,1.67
2019-02-14T00:25:41.588Z,1.63
2019-02-14T00:26:41.518Z,1.64
2019-02-14T00:27:41.514Z,1.56
2019-02-14T00:28:41.549Z,1.53
2019-02-14T00:29:41.505Z,1.63
2019-02-14T00:30:41.474Z,1.44
2019-02-14T00:31:41.470Z,1.47
2019-02-14T00:32:41.459Z,1.47
2019-02-14T00:33:41.447Z,1.47
2019-02-14T00:34:41.475Z,1.46
2019-02-14T00:35:41.419Z,1.50
2019-02-14T00:36:41.454Z,1.42
2019-02-14T00:37:41.399Z,1.39
2019-02-14T00:38:41.388Z,1.35
2019-02-14T00:39:41.427Z,1.38
2019-02-14T00:40:41.379Z,1.38
2019-02-14T00:41:41.357Z,1.32
2019-02-14T00:42:41.346Z,1.34
2019-02-14T00:43:41.333Z,1.31
2019-02-14T00:44:41.406Z,1.26
2019-02-14T00:45:41.323Z,1.17
2019-02-14T00:46:41.301Z,1.31
2019-02-14T00:47:41.297Z,1.24
2019-02-14T00:48:41.279Z,1.31
2019-02-14T00:49:41.371Z,1.18
2019-02-14T00:50:41.261Z,1.16
2019-02-14T00:51:41.247Z,1.28
2019-02-14T00:52:41.251Z,1.20
2019-02-14T00:53:41.224Z,1.26
2019-02-14T00:54:41.259Z,1.24
2019-02-14T00:55:41.217Z,1.21
2019-02-14T00:56:41.193Z,1.29
2019-02-14T00:57:41.199Z,1.20
2019-02-14T00:58:41.170Z,1.17
2019-02-14T00:59:41.206Z,1.17
2019-02-14T01:00:41.146Z,1.10
2019-02-14T01:01:41.136Z,1.11
2019-02-14T01:02:41.128Z,1.14
2019-02-14T01:03:41.114Z,1.14
2019-02-14T01:04:41.145Z,1.13
2019-02-14T01:05:41.093Z,1.16
2019-02-14T01:06:41.082Z,1.08
2019-02-14T01:07:41.070Z,1.14
2019-02-14T01:08:41.066Z,1.21
2019-02-14T01:09:41.095Z,1.17
2019-02-14T01:10:41.044Z,1.25
2019-02-14T01:11:41.026Z,1.11
2019-02-14T01:12:41.017Z,1.18
2019-02-14T01:13:41.005Z,1.20
2019-02-14T01:14:41.037Z,1.17
2019-02-14T01:15:40.982Z,1.17
2019-02-14T01:16:40.975Z,1.14
2019-02-14T01:17:40.961Z,1.14
2019-02-14T01:18:40.949Z,1.08
2019-02-14T01:19:40.989Z,1.08
2019-02-14T01:20:40.929Z,1.14
2019-02-14T01:21:40.919Z,1.11
2019-02-14T01:22:40.907Z,1.18
2019-02-14T01:23:40.929Z,1.20
2019-02-14T01:24:40.932Z,1.17
2019-02-14T01:25:40.877Z,1.11
2019-02-14T01:26:40.873Z,1.14
2019-02-14T01:27:40.851Z,1.13
2019-02-14T01:28:40.844Z,1.08
2019-02-14T01:29:40.873Z,1.06
2019-02-14T01:30:40.840Z,0.99
2019-02-14T01:31:40.814Z,1.02
2019-02-14T01:32:40.796Z,1.00
2019-02-14T01:33:40.791Z,0.99
2019-02-14T01:34:40.822Z,0.96
2019-02-14T01:35:42.158Z,0.92
2019-02-14T01:36:40.754Z,0.92
2019-02-14T01:37:40.753Z,0.89
2019-02-14T01:38:40.731Z,0.86
2019-02-14T01:39:40.766Z,0.77
2019-02-14T01:40:40.710Z,0.80
2019-02-14T01:41:40.697Z,0.78
2019-02-14T01:42:40.686Z,0.72
2019-02-14T01:43:40.718Z,0.74
2019-02-14T01:44:40.707Z,0.74
2019-02-14T01:45:40.652Z,0.80
2019-02-14T01:46:40.641Z,0.71
2019-02-14T01:47:40.636Z,0.80
2019-02-14T01:48:40.621Z,0.75
2019-02-14T01:49:40.651Z,0.74
2019-02-14T01:50:40.597Z,0.71
2019-02-14T01:51:40.597Z,0.62
2019-02-14T01:52:40.573Z,0.63
2019-02-14T01:53:40.562Z,0.67
2019-02-14T01:54:40.599Z,0.60
2019-02-14T01:55:40.540Z,0.68
2019-02-14T01:56:40.529Z,0.59
2019-02-14T01:57:40.544Z,0.59
2019-02-14T01:58:40.508Z,0.56
2019-02-14T01:59:40.559Z,0.67
2019-02-14T02:00:40.486Z,0.59
2019-02-14T02:01:40.481Z,0.56
2019-02-14T02:02:40.464Z,0.59
2019-02-14T02:03:40.449Z,0.70
2019-02-14T02:04:40.440Z,0.67
2019-02-14T02:05:40.479Z,0.64
2019-02-14T02:06:40.419Z,0.67
2019-02-14T02:07:40.445Z,0.74
2019-02-14T02:08:40.407Z,0.57
2019-02-14T02:09:40.386Z,0.53
2019-02-14T02:10:40.417Z,0.62
2019-02-14T02:11:40.364Z,0.53
2019-02-14T02:12:40.351Z,0.51
2019-02-14T02:13:40.338Z,0.52
2019-02-14T02:14:40.338Z,0.49
2019-02-14T02:15:40.360Z,0.53
2019-02-14T02:16:40.312Z,0.62
2019-02-14T02:17:40.294Z,0.70
2019-02-14T02:18:40.280Z,0.68
2019-02-14T02:19:40.274Z,0.68
2019-02-14T02:20:40.302Z,0.74
2019-02-14T02:21:40.248Z,0.67
2019-02-14T02:22:40.239Z,0.56
2019-02-14T02:23:40.231Z,0.48
2019-02-14T02:24:40.213Z,0.51
2019-02-14T02:25:40.246Z,0.59
2019-02-14T02:26:40.192Z,0.53
2019-02-14T02:27:40.211Z,0.51
2019-02-14T02:28:40.182Z,0.38
2019-02-14T02:29:40.160Z,0.49
2019-02-14T02:30:40.197Z,0.43
2019-02-14T02:31:40.134Z,0.33
2019-02-14T02:32:40.126Z,0.40
2019-02-14T02:33:40.119Z,0.30
2019-02-14T02:34:40.114Z,0.34
2019-02-14T02:35:40.141Z,0.26
2019-02-14T02:36:40.081Z,0.31
2019-02-14T02:37:40.069Z,0.31
2019-02-14T02:38:40.057Z,0.34
2019-02-14T02:39:40.049Z,0.33
2019-02-14T02:40:40.080Z,0.23
2019-02-14T02:41:40.034Z,0.23
2019-02-14T02:42:40.031Z,0.23
2019-02-14T02:43:40.005Z,0.28
2019-02-14T02:44:39.996Z,0.19
2019-02-14T02:45:40.024Z,0.15
2019-02-14T02:46:39.969Z,0.20
2019-02-14T02:47:39.966Z,0.17
2019-02-14T02:48:39.948Z,0.05
2019-02-14T02:49:39.936Z,0.15
2019-02-14T02:50:39.969Z,0.16
2019-02-14T02:51:39.920Z,0.08
2019-02-14T02:52:39.913Z,0.08
2019-02-14T02:53:39.900Z,0.08
2019-02-14T02:54:39.880Z,0.17
2019-02-14T02:55:39.915Z,0.10
2019-02-14T02:56:39.863Z,0.10
2019-02-14T02:57:39.852Z,0.13
2019-02-14T02:58:39.836Z,0.12
2019-02-14T02:59:39.838Z,0.05
2019-02-14T03:00:39.860Z,0.04
2019-02-14T03:01:39.808Z,-0.03
2019-02-14T03:02:39.795Z,-0.05
2019-02-14T03:03:39.782Z,0.02
2019-02-14T03:04:39.771Z,-0.03
2019-02-14T03:05:39.808Z,0.02
2019-02-14T03:06:39.749Z,-0.01
2019-02-14T03:07:39.736Z,-0.05
2019-02-14T03:08:39.724Z,-0.02
2019-02-14T03:09:39.713Z,-0.06
2019-02-14T03:10:39.749Z,-0.09
2019-02-14T03:11:39.696Z,-0.06
2019-02-14T03:12:39.681Z,-0.08
2019-02-14T03:13:39.680Z,-0.05
2019-02-14T03:14:39.658Z,-0.16
2019-02-14T03:15:39.699Z,-0.27
2019-02-14T03:16:39.637Z,-0.23
2019-02-14T03:17:39.631Z,-0.14
2019-02-14T03:18:39.627Z,-0.14
2019-02-14T03:19:39.611Z,-0.19
2019-02-14T03:20:39.635Z,-0.14
2019-02-14T03:21:39.583Z,-0.16
2019-02-14T03:22:39.569Z,-0.14
2019-02-14T03:23:39.557Z,-0.14
2019-02-14T03:24:39.547Z,-0.12
2019-02-14T03:25:39.581Z,-0.14
2019-02-14T03:26:39.530Z,-0.12
2019-02-14T03:27:39.515Z,-0.08
2019-02-14T03:28:39.504Z,-0.09
2019-02-14T03:29:39.493Z,0.01
2019-02-14T03:30:39.539Z,-0.02
2019-02-14T03:31:39.470Z,-0.03
2019-02-14T03:32:39.463Z,-0.03
2019-02-14T03:33:39.450Z,-0.09
2019-02-14T03:34:39.436Z,-0.05
2019-02-14T03:35:39.432Z,-0.17
2019-02-14T03:36:39.458Z,-0.09
2019-02-14T03:37:39.405Z,-0.12
2019-02-14T03:38:39.399Z,-0.08
2019-02-14T03:39:39.389Z,-0.23
2019-02-14T03:40:39.371Z,-0.17
2019-02-14T03:41:39.406Z,-0.12
2019-02-14T03:42:39.351Z,-0.14
2019-02-14T03:43:39.337Z,-0.21
2019-02-14T03:44:39.330Z,-0.19
2019-02-14T03:45:39.324Z,-0.17
2019-02-14T03:46:39.357Z,-0.17
2019-02-14T03:47:39.308Z,-0.20
2019-02-14T03:48:39.284Z,-0.20
2019-02-14T03:49:39.272Z,-0.24
2019-02-14T03:50:39.263Z,-0.31
2019-02-14T03:51:40.658Z,-0.24
2019-02-14T03:52:39.239Z,-0.31
2019-02-14T03:53:39.243Z,-0.30
2019-02-14T03:54:39.219Z,-0.21
2019-02-14T03:55:39.206Z,-0.30
2019-02-14T03:56:39.240Z,-0.27
2019-02-14T03:57:39.184Z,-0.31
2019-02-14T03:58:39.172Z,-0.23
2019-02-14T03:59:39.166Z,-0.32
2019-02-14T04:00:39.154Z,-0.34
2019-02-14T04:01:39.185Z,-0.34
2019-02-14T04:02:39.131Z,-0.34
2019-02-14T04:03:39.117Z,-0.41
2019-02-14T04:04:39.106Z,-0.35
2019-02-14T04:05:39.095Z,-0.32
2019-02-14T04:06:39.127Z,-0.34
2019-02-14T04:07:39.073Z,-0.41
2019-02-14T04:08:39.068Z,-0.44
2019-02-14T04:09:39.051Z,-0.42
2019-02-14T04:10:39.043Z,-0.49
2019-02-14T04:11:39.077Z,-0.39
2019-02-14T04:12:39.021Z,-0.59
2019-02-14T04:13:39.008Z,-0.52
2019-02-14T04:14:39.004Z,-0.55
2019-02-14T04:15:38.987Z,-0.59
2019-02-14T04:16:39.021Z,-0.59
2019-02-14T04:17:38.963Z,-0.63
2019-02-14T04:18:38.955Z,-0.59
2019-02-14T04:19:38.943Z,-0.50
2019-02-14T04:20:38.940Z,-0.52
2019-02-14T04:21:38.971Z,-0.39
2019-02-14T04:22:38.913Z,-0.42
2019-02-14T04:23:38.905Z,-0.35
2019-02-14T04:24:38.890Z,-0.38
2019-02-14T04:25:38.878Z,-0.50
2019-02-14T04:26:38.910Z,-0.52
2019-02-14T04:27:38.857Z,-0.52
2019-02-14T04:28:38.850Z,-0.59
2019-02-14T04:29:38.844Z,-0.56
2019-02-14T04:30:38.824Z,-0.59
2019-02-14T04:31:38.856Z,-0.58
2019-02-14T04:32:38.801Z,-0.65
2019-02-14T04:33:38.792Z,-0.58
2019-02-14T04:34:38.781Z,-0.65
2019-02-14T04:35:38.781Z,-0.71
2019-02-14T04:36:38.811Z,-0.80
2019-02-14T04:37:38.756Z,-0.71
2019-02-14T04:38:38.737Z,-0.73
2019-02-14T04:39:38.726Z,-0.74
2019-02-14T04:40:38.719Z,-0.73
2019-02-14T04:41:38.749Z,-0.81
2019-02-14T04:42:38.693Z,-0.77
2019-02-14T04:43:38.680Z,-0.83
2019-02-14T04:44:38.673Z,-0.85
2019-02-14T04:45:38.662Z,-0.89
2019-02-14T04:46:38.695Z,-0.93
2019-02-14T04:47:38.640Z,-0.96
2019-02-14T04:48:38.631Z,-0.93
2019-02-14T04:49:38.616Z,-0.97
2019-02-14T04:50:38.606Z,-0.95
2019-02-14T04:51:38.642Z,-1.03
2019-02-14T04:52:38.585Z,-1.02
2019-02-14T04:53:38.572Z,-1.02
2019-02-14T04:54:38.564Z,-1.03
2019-02-14T04:55:39.136Z,-1.02
2019-02-14T04:56:38.584Z,-1.00
2019-02-14T04:57:38.529Z,-0.99
2019-02-14T04:58:38.519Z,-1.02
2019-02-14T04:59:38.507Z,-1.02
2019-02-14T05:00:38.506Z,-1.03
2019-02-14T05:01:38.528Z,-1.02
2019-02-14T05:02:38.477Z,-0.99
2019-02-14T05:03:38.464Z,-1.05
2019-02-14T05:04:38.452Z,-0.99
2019-02-14T05:05:38.442Z,-0.99
2019-02-14T05:06:44.251Z,-1.03
2019-02-14T05:07:39.418Z,-1.02
2019-02-14T05:08:38.412Z,-1.08
2019-02-14T05:09:38.404Z,-1.13
2019-02-14T05:10:38.398Z,-1.11
2019-02-14T05:11:38.381Z,-0.99
2019-02-14T05:12:38.420Z,-1.03
2019-02-14T05:13:38.355Z,-1.00
2019-02-14T05:14:38.348Z,-0.99
2019-02-14T05:15:38.336Z,-0.97
2019-02-14T05:16:38.326Z,-1.00
2019-02-14T05:17:38.371Z,-1.00
2019-02-14T05:18:38.304Z,-1.00
2019-02-14T05:19:38.296Z,-1.02
2019-02-14T05:20:38.287Z,-1.10
2019-02-14T05:21:38.268Z,-1.00
2019-02-14T05:22:38.302Z,-1.07
2019-02-14T05:23:38.249Z,-1.15
2019-02-14T05:24:38.235Z,-1.13
2019-02-14T05:25:38.230Z,-1.07
2019-02-14T05:26:38.214Z,-1.08
2019-02-14T05:27:38.246Z,-1.14
2019-02-14T05:28:38.196Z,-1.18
2019-02-14T05:29:38.182Z,-1.18
2019-02-14T05:30:38.171Z,-1.10
2019-02-14T05:31:38.163Z,-1.10
2019-02-14T05:32:38.194Z,-1.08
2019-02-14T05:33:38.143Z,-1.08
2019-02-14T05:34:38.131Z,-1.20
2019-02-14T05:35:38.119Z,-1.14
2019-02-14T05:36:38.109Z,-1.10
2019-02-14T05:37:38.147Z,-1.17
2019-02-14T05:38:38.087Z,-1.03
2019-02-14T05:39:38.075Z,-0.96
2019-02-14T05:40:38.065Z,-0.92
2019-02-14T05:41:38.055Z,-0.86
2019-02-14T05:42:38.086Z,-0.90
2019-02-14T05:43:38.049Z,-0.92
2019-02-14T05:44:38.026Z,-0.89
2019-02-14T05:45:38.014Z,-0.89
2019-02-14T05:46:38.002Z,-0.85
2019-02-14T05:47:38.034Z,-1.02
2019-02-14T05:48:39.140Z,-0.97
2019-02-14T05:49:37.979Z,-1.03
2019-02-14T05:50:37.959Z,-0.97
2019-02-14T05:51:37.948Z,-1.02
2019-02-14T05:52:37.981Z,-1.03
2019-02-14T05:53:37.930Z,-1.07
2019-02-14T05:54:37.919Z,-1.05
2019-02-14T05:55:37.921Z,-1.00
2019-02-14T05:56:37.898Z,-1.02
2019-02-14T05:57:37.936Z,-1.02
2019-02-14T05:58:37.876Z,-1.02
2019-02-14T05:59:37.863Z,-1.02
2019-02-14T06:00:37.855Z,-1.14
2019-02-14T06:01:37.862Z,-1.15
2019-02-14T06:02:37.938Z,-1.15
2019-02-14T06:03:37.848Z,-1.14
2019-02-14T06:04:37.812Z,-1.13
2019-02-14T06:05:37.801Z,-1.08
2019-02-14T06:06:37.795Z,-1.11
2019-02-14T06:07:37.844Z,-1.13
2019-02-14T06:08:37.800Z,-1.15
2019-02-14T06:09:37.848Z,-1.15
2019-02-14T06:10:37.748Z,-1.17
2019-02-14T06:11:37.737Z,-1.25
2019-02-14T06:12:37.771Z,-1.14
2019-02-14T06:13:37.715Z,-1.03
2019-02-14T06:14:37.712Z,-1.02
2019-02-14T06:15:37.696Z,-0.99
2019-02-14T06:16:37.688Z,-1.02
2019-02-14T06:17:37.725Z,-1.02
2019-02-14T06:18:37.666Z,-1.05
2019-02-14T06:19:37.655Z,-1.14
2019-02-14T06:20:37.642Z,-1.08
2019-02-14T06:21:37.635Z,-1.11
2019-02-14T06:22:37.670Z,-1.15
2019-02-14T06:23:37.625Z,-1.21
2019-02-14T06:24:37.617Z,-1.13
2019-02-14T06:25:37.589Z,-1.20
2019-02-14T06:26:37.585Z,-1.15
2019-02-14T06:27:37.613Z,-1.11
2019-02-14T06:28:37.560Z,-1.20
2019-02-14T06:29:37.551Z,-1.13
2019-02-14T06:30:37.542Z,-1.20
2019-02-14T06:31:37.529Z,-1.18
2019-02-14T06:32:37.516Z,-1.15
2019-02-14T06:33:37.551Z,-1.20
2019-02-14T06:34:37.497Z,-1.13
2019-02-14T06:35:37.486Z,-1.15
2019-02-14T06:36:37.479Z,-1.23
2019-02-14T06:37:37.469Z,-1.23
2019-02-14T06:38:37.501Z,-1.18
2019-02-14T06:39:37.620Z,-1.26
2019-02-14T06:40:37.439Z,-1.26
2019-02-14T06:41:37.423Z,-1.23
2019-02-14T06:42:37.414Z,-1.23
2019-02-14T06:43:37.453Z,-1.23
2019-02-14T06:44:37.391Z,-1.29
2019-02-14T06:45:37.381Z,-1.26
2019-02-14T06:46:37.373Z,-1.25
2019-02-14T06:47:37.374Z,-1.23
2019-02-14T06:48:37.395Z,-1.21
2019-02-14T06:49:37.342Z,-1.29
2019-02-14T06:50:37.332Z,-1.23
2019-02-14T06:51:37.317Z,-1.26
2019-02-14T06:52:37.308Z,-1.29
2019-02-14T06:53:37.344Z,-1.29
2019-02-14T06:54:37.286Z,-1.26
2019-02-14T06:55:37.277Z,-1.20
2019-02-14T06:56:37.267Z,-1.20
2019-02-14T06:57:37.260Z,-1.11
2019-02-14T06:58:37.293Z,-1.18
2019-02-14T06:59:37.237Z,-1.11
2019-02-14T07:00:37.222Z,-1.03
2019-02-14T07:01:37.215Z,-1.07
2019-02-14T07:02:37.200Z,-1.05
2019-02-14T07:03:37.236Z,-1.02
2019-02-14T07:04:37.182Z,-0.97
2019-02-14T07:05:37.172Z,-0.92
2019-02-14T07:06:37.160Z,-0.77
2019-02-14T07:07:37.154Z,-0.80
2019-02-14T07:08:37.186Z,-0.73
2019-02-14T07:09:37.128Z,-0.77
2019-02-14T07:10:37.118Z,-0.77
2019-02-14T07:11:37.111Z,-0.71
2019-02-14T07:12:37.097Z,-0.73
2019-02-14T07:13:37.132Z,-0.77
2019-02-14T07:14:37.077Z,-0.70
2019-02-14T07:15:37.066Z,-0.77
2019-02-14T07:16:37.059Z,-0.65
2019-02-14T07:17:37.062Z,-0.62
2019-02-14T07:18:37.077Z,-0.68
2019-02-14T07:19:37.024Z,-0.62
2019-02-14T07:20:37.011Z,-0.67
2019-02-14T07:21:37.005Z,-0.67
2019-02-14T07:22:36.993Z,-0.59
2019-02-14T07:23:37.026Z,-0.58
2019-02-14T07:24:36.969Z,-0.56
2019-02-14T07:25:36.960Z,-0.45
2019-02-14T07:26:36.952Z,-0.49
2019-02-14T07:27:36.937Z,-0.49
2019-02-14T07:28:36.970Z,-0.42
2019-02-14T07:29:36.928Z,-0.32
2019-02-14T07:30:36.908Z,-0.37
2019-02-14T07:31:36.895Z,-0.31
2019-02-14T07:32:36.884Z,-0.27
2019-02-14T07:33:36.918Z,-0.30
2019-02-14T07:34:36.868Z,-0.24
2019-02-14T07:35:36.854Z,-0.24
2019-02-14T07:36:36.846Z,-0.17
2019-02-14T07:37:36.829Z,-0.19
2019-02-14T07:38:36.865Z,-0.16
2019-02-14T07:39:36.807Z,-0.01
2019-02-14T07:40:36.801Z,-0.03
2019-02-14T07:41:36.786Z,-0.02
2019-02-14T07:42:36.784Z,0.01
2019-02-14T07:43:36.829Z,0.10
2019-02-14T07:44:36.756Z,0.15
2019-02-14T07:45:36.744Z,0.15
2019-02-14T07:46:36.754Z,0.19
2019-02-14T07:47:36.724Z,0.30
2019-02-14T07:48:36.711Z,0.30
2019-02-14T07:49:36.747Z,0.28
2019-02-14T07:50:36.689Z,0.31
2019-02-14T07:51:36.679Z,0.34
2019-02-14T07:52:36.671Z,0.35
2019-02-14T07:53:36.657Z,0.49
2019-02-14T07:54:36.692Z,0.52
2019-02-14T07:55:36.638Z,0.70
2019-02-14T07:56:36.624Z,0.75
2019-02-14T07:57:36.614Z,0.89
2019-02-14T07:58:36.602Z,0.80
2019-02-14T07:59:36.635Z,0.84
2019-02-14T08:00:36.582Z,0.92
2019-02-14T08:01:36.569Z,0.99
2019-02-14T08:02:36.559Z,1.08
2019-02-14T08:03:36.551Z,1.17
2019-02-14T08:04:36.583Z,1.25
2019-02-14T08:05:36.526Z,1.21
2019-02-14T08:06:36.517Z,1.31
2019-02-14T08:07:36.518Z,1.14
2019-02-14T08:08:36.497Z,1.31
2019-02-14T08:09:36.528Z,1.34
2019-02-14T08:10:36.475Z,1.35
2019-02-14T08:11:36.459Z,1.39
2019-02-14T08:12:36.448Z,1.42
2019-02-14T08:13:36.441Z,1.44
2019-02-14T08:14:36.473Z,1.65
2019-02-14T08:15:36.417Z,1.85
2019-02-14T08:16:36.403Z,2.14
2019-02-14T08:17:36.394Z,2.37
2019-02-14T08:18:36.384Z,2.43
2019-02-14T08:19:36.426Z,2.36
2019-02-14T08:20:36.363Z,2.30
2019-02-14T08:21:36.351Z,2.36
2019-02-14T08:22:36.337Z,2.69
2019-02-14T08:23:36.325Z,2.95
2019-02-14T08:24:36.358Z,3.31
2019-02-14T08:25:36.302Z,3.31
2019-02-14T08:26:36.293Z,3.23
2019-02-14T08:27:36.283Z,3.01
2019-02-14T08:28:36.270Z,3.30
2019-02-14T08:29:36.308Z,3.78
2019-02-14T08:30:36.248Z,4.36
2019-02-14T08:31:36.240Z,5.22
2019-02-14T08:32:36.229Z,5.69
2019-02-14T08:33:36.215Z,5.59
2019-02-14T08:34:36.249Z,5.37
2019-02-14T08:35:36.194Z,4.97
2019-02-14T08:36:36.183Z,4.90
2019-02-14T08:37:44.654Z,4.69
2019-02-14T08:38:37.162Z,4.50
2019-02-14T08:39:36.193Z,4.29
2019-02-14T08:40:36.142Z,4.26
2019-02-14T08:41:36.130Z,4.13
2019-02-14T08:42:36.117Z,4.04
2019-02-14T08:43:36.107Z,3.99
2019-02-14T08:44:36.140Z,4.20
2019-02-14T08:45:36.084Z,4.46
2019-02-14T08:46:36.073Z,4.75
2019-02-14T08:47:36.064Z,5.20
2019-02-14T08:48:36.056Z,5.80
2019-02-14T08:49:36.088Z,6.35
2019-02-14T08:50:36.033Z,6.39
2019-02-14T08:51:36.023Z,6.45
2019-02-14T08:52:36.017Z,6.35
2019-02-14T08:53:35.997Z,6.61
2019-02-14T08:54:36.034Z,6.81
2019-02-14T08:55:35.982Z,6.32
2019-02-14T08:56:35.965Z,6.02
2019-02-14T08:57:35.966Z,6.13
2019-02-14T08:58:35.946Z,5.99
2019-02-14T08:59:35.976Z,5.85
2019-02-14T09:00:35.922Z,5.63
2019-02-14T09:01:35.915Z,5.42
2019-02-14T09:02:35.898Z,5.22
2019-02-14T09:03:35.887Z,5.17
2019-02-14T09:04:35.928Z,5.15
2019-02-14T09:05:35.865Z,5.23
2019-02-14T09:06:35.857Z,5.56
2019-02-14T09:07:35.843Z,6.58
2019-02-14T09:08:35.835Z,8.07
2019-02-14T09:09:35.866Z,9.13
2019-02-14T09:10:35.816Z,9.96
2019-02-14T09:11:35.799Z,10.65
2019-02-14T09:12:35.792Z,11.39
2019-02-14T09:13:35.779Z,11.90
2019-02-14T09:14:35.815Z,12.07
2019-02-14T09:15:35.754Z,11.70
2019-02-14T09:16:35.744Z,10.99
2019-02-14T09:17:35.731Z,10.80
2019-02-14T09:18:35.719Z,10.84
2019-02-14T09:19:35.753Z,10.63
2019-02-14T09:20:35.698Z,10.51
2019-02-14T09:21:35.687Z,10.58
2019-02-14T09:22:35.678Z,11.20
2019-02-14T09:23:35.673Z,12.08
2019-02-14T09:24:35.702Z,12.25
2019-02-14T09:25:35.646Z,11.67
2019-02-14T09:26:35.665Z,11.26
2019-02-14T09:27:35.622Z,10.83
2019-02-14T09:28:35.616Z,10.51
2019-02-14T09:29:35.647Z,9.80
2019-02-14T09:30:35.589Z,9.42
2019-02-14T09:31:35.578Z,9.31
2019-02-14T09:32:35.565Z,10.07
2019-02-14T09:33:35.554Z,10.91
2019-02-14T09:34:35.596Z,11.51
2019-02-14T09:35:35.537Z,12.03
2019-02-14T09:36:35.520Z,12.08
2019-02-14T09:37:35.510Z,12.00
2019-02-14T09:38:35.504Z,11.72
2019-02-14T09:39:40.986Z,11.85
2019-02-14T09:40:36.520Z,12.37
2019-02-14T09:41:35.466Z,12.59
2019-02-14T09:42:35.457Z,12.59
2019-02-14T09:43:35.443Z,12.74
2019-02-14T09:44:35.437Z,12.74
2019-02-14T09:45:35.466Z,12.77
2019-02-14T09:46:35.411Z,13.12
2019-02-14T09:47:35.399Z,13.61
2019-02-14T09:48:35.388Z,13.72
2019-02-14T09:49:35.387Z,13.55
2019-02-14T09:50:35.414Z,12.95
2019-02-14T09:51:35.360Z,12.71
2019-02-14T09:52:35.348Z,13.21
2019-02-14T09:53:35.333Z,13.62
2019-02-14T09:54:35.323Z,14.27
2019-02-14T09:55:35.378Z,15.03
2019-02-14T09:56:35.299Z,15.73
2019-02-14T09:57:35.301Z,16.33
2019-02-14T09:58:35.329Z,16.34
2019-02-14T09:59:35.339Z,16.18
2019-02-14T10:00:35.907Z,16.37
2019-02-14T10:01:35.795Z,16.33
2019-02-14T10:02:35.240Z,16.36
2019-02-14T10:03:35.224Z,16.22
2019-02-14T10:04:35.209Z,16.10
2019-02-14T10:05:35.245Z,15.51
2019-02-14T10:06:36.927Z,14.91
2019-02-14T10:07:35.180Z,14.21
2019-02-14T10:08:35.172Z,13.69
2019-02-14T10:09:35.155Z,13.24
2019-02-14T10:10:35.186Z,13.06
2019-02-14T10:11:35.156Z,12.87
2019-02-14T10:12:35.128Z,12.49
2019-02-14T10:13:35.111Z,12.58
2019-02-14T10:14:35.103Z,12.94
2019-02-14T10:15:35.134Z,12.98
2019-02-14T10:16:35.079Z,13.03
2019-02-14T10:17:35.067Z,13.54
2019-02-14T10:18:35.059Z,13.44
2019-02-14T10:19:35.042Z,13.24
2019-02-14T10:20:35.075Z,12.91
2019-02-14T10:21:35.026Z,12.54
2019-02-14T10:22:35.010Z,12.51
2019-02-14T10:23:35.003Z,12.44
2019-02-14T10:24:34.992Z,12.16
2019-02-14T10:25:35.022Z,12.03
2019-02-14T10:26:34.966Z,11.87
2019-02-14T10:27:34.958Z,11.75
2019-02-14T10:28:34.943Z,11.57
2019-02-14T10:29:34.932Z,11.49
2019-02-14T10:30:34.975Z,11.44
2019-02-14T10:31:34.912Z,11.38
2019-02-14T10:32:34.898Z,11.26
2019-02-14T10:33:34.892Z,11.13
2019-02-14T10:34:34.876Z,11.09
2019-02-14T10:35:34.909Z,11.06
2019-02-14T10:36:34.856Z,11.06
2019-02-14T10:37:34.850Z,11.03
2019-02-14T10:38:34.834Z,10.83
2019-02-14T10:39:34.822Z,10.86
2019-02-14T10:40:34.857Z,10.91
2019-02-14T10:41:34.799Z,11.08
2019-02-14T10:42:34.791Z,11.35
2019-02-14T10:43:34.785Z,11.41
2019-02-14T10:44:34.786Z,11.59
2019-02-14T10:45:34.801Z,12.11
2019-02-14T10:46:35.714Z,12.89
2019-02-14T10:47:34.733Z,13.10
2019-02-14T10:48:34.723Z,12.81
2019-02-14T10:49:34.712Z,12.36
2019-02-14T10:50:34.760Z,12.30
2019-02-14T10:51:34.689Z,12.51
2019-02-14T10:52:34.677Z,13.86
2019-02-14T10:53:34.669Z,15.53
2019-02-14T10:54:34.661Z,16.84
2019-02-14T10:55:34.746Z,17.60
2019-02-14T10:56:34.633Z,17.58
2019-02-14T10:57:34.634Z,17.89
2019-02-14T10:58:34.612Z,17.86
2019-02-14T10:59:34.600Z,18.42
2019-02-14T11:00:34.635Z,18.83
2019-02-14T11:01:34.599Z,19.20
2019-02-14T11:02:34.567Z,19.64
2019-02-14T11:03:34.562Z,19.64
2019-02-14T11:04:34.550Z,19.92
2019-02-14T11:05:35.569Z,20.22
2019-02-14T11:06:34.526Z,20.19
2019-02-14T11:07:34.514Z,20.38
2019-02-14T11:08:34.504Z,20.41
2019-02-14T11:09:34.490Z,20.23
2019-02-14T11:10:34.524Z,19.83
2019-02-14T11:11:34.471Z,20.10
2019-02-14T11:12:34.481Z,20.38
2019-02-14T11:13:34.446Z,20.46
2019-02-14T11:14:34.434Z,19.83
2019-02-14T11:15:34.466Z,19.23
2019-02-14T11:16:34.413Z,18.20
2019-02-14T11:17:34.404Z,17.39
2019-02-14T11:18:43.722Z,17.45
2019-02-14T11:19:35.382Z,17.02
2019-02-14T11:20:34.416Z,16.59
2019-02-14T11:21:34.355Z,16.03
2019-02-14T11:22:34.347Z,15.67
2019-02-14T11:23:34.336Z,15.40
2019-02-14T11:24:34.323Z,15.62
2019-02-14T11:25:34.370Z,15.74
2019-02-14T11:26:34.301Z,16.07
2019-02-14T11:27:34.290Z,15.96
2019-02-14T11:28:34.278Z,15.16
2019-02-14T11:29:34.270Z,14.91
2019-02-14T11:30:34.302Z,15.04
2019-02-14T11:31:34.802Z,15.15
2019-02-14T11:32:34.235Z,15.30
2019-02-14T11:33:34.223Z,15.16
2019-02-14T11:34:34.211Z,15.16
2019-02-14T11:35:34.256Z,14.95
2019-02-14T11:36:34.193Z,15.01
2019-02-14T11:37:34.187Z,15.37
2019-02-14T11:38:40.398Z,15.62
2019-02-14T11:39:35.165Z,15.70
2019-02-14T11:40:34.183Z,15.86
2019-02-14T11:41:34.177Z,15.93
2019-02-14T11:42:34.124Z,16.29
2019-02-14T11:43:34.145Z,16.30
2019-02-14T11:44:39.903Z,16.77
2019-02-14T11:45:35.090Z,17.15
2019-02-14T11:46:34.126Z,17.45
2019-02-14T11:47:34.067Z,17.83
2019-02-14T11:48:34.059Z,18.04
2019-02-14T11:49:34.052Z,18.29
2019-02-14T11:50:34.040Z,18.39
2019-02-14T11:51:34.078Z,18.50
2019-02-14T11:52:34.015Z,18.66
2019-02-14T11:53:34.010Z,18.46
2019-02-14T11:54:33.994Z,18.09
2019-02-14T11:55:33.983Z,17.45
2019-02-14T11:56:34.018Z,16.72
2019-02-14T11:57:33.966Z,16.17
2019-02-14T11:58:33.948Z,15.53
2019-02-14T11:59:33.938Z,15.23
2019-02-14T12:00:33.932Z,14.97
2019-02-14T12:01:33.958Z,15.01
2019-02-14T12:02:33.905Z,15.01
2019-02-14T12:03:33.905Z,15.11
2019-02-14T12:04:33.882Z,15.01
2019-02-14T12:05:33.870Z,14.98
2019-02-14T12:06:33.918Z,15.13
2019-02-14T12:07:33.856Z,15.18
2019-02-14T12:08:33.850Z,15.33
2019-02-14T12:09:33.826Z,15.60
2019-02-14T12:10:33.815Z,15.84
2019-02-14T12:11:33.853Z,16.13
2019-02-14T12:12:33.793Z,16.27
2019-02-14T12:13:33.782Z,16.45
2019-02-14T12:14:33.791Z,16.72
2019-02-14T12:15:33.762Z,16.92
2019-02-14T12:16:33.798Z,17.14
2019-02-14T12:17:33.741Z,17.15
2019-02-14T12:18:33.727Z,17.12
2019-02-14T12:19:33.720Z,16.96
2019-02-14T12:20:33.708Z,16.70
2019-02-14T12:21:33.738Z,16.69
2019-02-14T12:22:33.682Z,16.70
2019-02-14T12:23:33.669Z,16.67
2019-02-14T12:24:34.918Z,16.51
2019-02-14T12:25:33.658Z,16.27
2019-02-14T12:26:33.686Z,16.26
2019-02-14T12:27:33.626Z,16.14
2019-02-14T12:28:33.621Z,15.89
2019-02-14T12:29:33.603Z,15.96
2019-02-14T12:30:33.592Z,15.92
2019-02-14T12:31:33.645Z,15.98
2019-02-14T12:32:33.582Z,15.98
2019-02-14T12:33:33.563Z,16.13
2019-02-14T12:34:33.550Z,16.30
2019-02-14T12:35:33.538Z,16.37
2019-02-14T12:36:33.531Z,16.47
2019-02-14T12:37:33.561Z,16.45
2019-02-14T12:38:33.525Z,16.42
2019-02-14T12:39:33.493Z,16.51
2019-02-14T12:40:33.491Z,16.59
2019-02-14T12:41:33.470Z,16.45
2019-02-14T12:42:33.512Z,16.32
2019-02-14T12:43:33.451Z,16.32
2019-02-14T12:44:33.438Z,16.27
2019-02-14T12:45:33.432Z,16.34
2019-02-14T12:46:33.428Z,16.29
2019-02-14T12:47:33.448Z,16.17
2019-02-14T12:48:33.399Z,15.88
2019-02-14T12:49:33.386Z,15.71
2019-02-14T12:50:33.373Z,15.77
2019-02-14T12:51:33.362Z,15.73
2019-02-14T12:52:33.400Z,15.86
2019-02-14T12:53:33.338Z,15.81
2019-02-14T12:54:33.329Z,15.96
2019-02-14T12:55:33.316Z,15.93
2019-02-14T12:56:33.305Z,15.85
2019-02-14T12:57:33.339Z,15.81
2019-02-14T12:58:33.290Z,15.81
2019-02-14T12:59:33.271Z,15.78
2019-02-14T13:00:33.265Z,15.89
2019-02-14T13:01:33.278Z,15.91